sensor_id;sensor_type;location;lat;lon;timestamp;temperature;humidity
46492;DHT22;32206;51.446;6.792;2023-06-01T00:01:48;17.30;99.90
46492;DHT22;32206;51.446;6.792;2023-06-01T00:04:13;17.30;99.90
46492;DHT22;32206;51.446;6.792;2023-06-01T00:06:39;17.30;99.90
46492;DHT22;32206;51.446;6.792;2023-06-01T00:09:05;17.30;1.00
46492;DHT22;32206;51.446;6.792;2023-06-01T00:11:31;17.30;1.00
46492;DHT22;32206;51.446;6.792;2023-06-01T00:13:57;17.10;1.00
46492;DHT22;32206;51.446;6.792;2023-06-01T00:16:23;17.20;1.00
46492;DHT22;32206;51.446;6.792;2023-06-01T00:18:49;17.10;1.00
46492;DHT22;32206;51.446;6.792;2023-06-01T00:21:16;17.00;1.00
46492;DHT22;32206;51.446;6.792;2023-06-01T00:23:42;17.00;1.00
46492;DHT22;32206;51.446;6.792;2023-06-01T00:26:08;16.90;1.00
46492;DHT22;32206;51.446;6.792;2023-06-01T00:28:34;16.80;1.00
46492;DHT22;32206;51.446;6.792;2023-06-01T00:31:00;16.80;1.00
46492;DHT22;32206;51.446;6.792;2023-06-01T00:33:26;16.80;1.00
46492;DHT22;32206;51.446;6.792;2023-06-01T00:35:52;16.70;1.00
46492;DHT22;32206;51.446;6.792;2023-06-01T00:38:18;16.60;1.00
46492;DHT22;32206;51.446;6.792;2023-06-01T00:40:43;16.60;1.00
46492;DHT22;32206;51.446;6.792;2023-06-01T00:43:09;16.50;1.00
46492;DHT22;32206;51.446;6.792;2023-06-01T00:45:36;16.50;1.00
46492;DHT22;32206;51.446;6.792;2023-06-01T00:48:03;16.40;1.00
46492;DHT22;32206;51.446;6.792;2023-06-01T00:50:30;16.30;1.00
46492;DHT22;32206;51.446;6.792;2023-06-01T00:52:56;16.30;1.00
46492;DHT22;32206;51.446;6.792;2023-06-01T00:55:22;16.20;1.00
46492;DHT22;32206;51.446;6.792;2023-06-01T00:57:50;16.20;1.00
46492;DHT22;32206;51.446;6.792;2023-06-01T01:00:16;16.10;1.00
46492;DHT22;32206;51.446;6.792;2023-06-01T01:02:43;16.10;1.00
46492;DHT22;32206;51.446;6.792;2023-06-01T01:05:14;16.10;1.00
46492;DHT22;32206;51.446;6.792;2023-06-01T01:10:32;16.00;1.00
46492;DHT22;32206;51.446;6.792;2023-06-01T01:18:28;15.80;1.00
46492;DHT22;32206;51.446;6.792;2023-06-01T01:21:01;15.70;1.00
46492;DHT22;32206;51.446;6.792;2023-06-01T01:28:59;15.50;1.00
46492;DHT22;32206;51.446;6.792;2023-06-01T01:31:26;15.40;1.00
46492;DHT22;32206;51.446;6.792;2023-06-01T01:33:55;15.50;1.00
46492;DHT22;32206;51.446;6.792;2023-06-01T01:36:22;15.40;1.00
46492;DHT22;32206;51.446;6.792;2023-06-01T01:38:48;15.40;1.00
46492;DHT22;32206;51.446;6.792;2023-06-01T01:41:14;15.40;1.00
46492;DHT22;32206;51.446;6.792;2023-06-01T01:43:40;15.30;1.00
46492;DHT22;32206;51.446;6.792;2023-06-01T01:48:50;15.10;1.00
46492;DHT22;32206;51.446;6.792;2023-06-01T01:51:20;15.10;1.00
46492;DHT22;32206;51.446;6.792;2023-06-01T01:53:48;15.00;1.00
46492;DHT22;32206;51.446;6.792;2023-06-01T01:56:18;15.00;1.00
46492;DHT22;32206;51.446;6.792;2023-06-01T01:58:45;14.90;3.30
46492;DHT22;32206;51.446;6.792;2023-06-01T02:01:13;14.90;3.60
46492;DHT22;32206;51.446;6.792;2023-06-01T02:03:38;14.80;2.20
46492;DHT22;32206;51.446;6.792;2023-06-01T02:06:04;14.70;6.40
46492;DHT22;32206;51.446;6.792;2023-06-01T02:08:30;14.70;12.20
46492;DHT22;32206;51.446;6.792;2023-06-01T02:10:56;14.60;14.50
46492;DHT22;32206;51.446;6.792;2023-06-01T02:13:22;14.50;18.30
46492;DHT22;32206;51.446;6.792;2023-06-01T02:15:47;14.50;22.30
46492;DHT22;32206;51.446;6.792;2023-06-01T02:18:13;14.40;20.00
46492;DHT22;32206;51.446;6.792;2023-06-01T02:20:44;14.40;21.50
46492;DHT22;32206;51.446;6.792;2023-06-01T02:23:10;14.40;20.10
46492;DHT22;32206;51.446;6.792;2023-06-01T02:25:36;14.30;23.10
46492;DHT22;32206;51.446;6.792;2023-06-01T02:28:01;14.20;23.40
46492;DHT22;32206;51.446;6.792;2023-06-01T02:30:27;14.20;25.70
46492;DHT22;32206;51.446;6.792;2023-06-01T02:32:53;14.10;26.90
46492;DHT22;32206;51.446;6.792;2023-06-01T02:35:19;13.90;29.30
46492;DHT22;32206;51.446;6.792;2023-06-01T02:37:44;14.00;31.90
46492;DHT22;32206;51.446;6.792;2023-06-01T02:43:39;13.90;36.00
46492;DHT22;32206;51.446;6.792;2023-06-01T02:46:05;13.80;38.70
46492;DHT22;32206;51.446;6.792;2023-06-01T02:48:31;13.70;39.50
46492;DHT22;32206;51.446;6.792;2023-06-01T02:50:56;13.60;44.30
46492;DHT22;32206;51.446;6.792;2023-06-01T02:53:22;13.50;50.50
46492;DHT22;32206;51.446;6.792;2023-06-01T02:55:47;13.40;52.20
46492;DHT22;32206;51.446;6.792;2023-06-01T02:58:13;13.50;51.40
46492;DHT22;32206;51.446;6.792;2023-06-01T03:00:42;13.30;50.00
46492;DHT22;32206;51.446;6.792;2023-06-01T03:03:08;13.30;51.80
46492;DHT22;32206;51.446;6.792;2023-06-01T03:05:34;13.30;55.80
46492;DHT22;32206;51.446;6.792;2023-06-01T03:08:01;13.30;51.10
46492;DHT22;32206;51.446;6.792;2023-06-01T03:13:48;13.20;57.70
46492;DHT22;32206;51.446;6.792;2023-06-01T03:16:14;13.20;60.30
46492;DHT22;32206;51.446;6.792;2023-06-01T03:18:42;13.20;59.10
46492;DHT22;32206;51.446;6.792;2023-06-01T03:21:07;13.10;59.70
46492;DHT22;32206;51.446;6.792;2023-06-01T03:23:33;13.20;63.20
46492;DHT22;32206;51.446;6.792;2023-06-01T03:25:59;13.10;57.40
46492;DHT22;32206;51.446;6.792;2023-06-01T03:28:24;13.10;58.60
46492;DHT22;32206;51.446;6.792;2023-06-01T03:30:50;13.00;61.00
46492;DHT22;32206;51.446;6.792;2023-06-01T03:33:16;13.00;58.60
46492;DHT22;32206;51.446;6.792;2023-06-01T03:35:42;13.00;61.10
46492;DHT22;32206;51.446;6.792;2023-06-01T03:38:09;13.00;63.50
46492;DHT22;32206;51.446;6.792;2023-06-01T03:40:35;13.00;56.90
46492;DHT22;32206;51.446;6.792;2023-06-01T03:43:01;13.00;54.40
46492;DHT22;32206;51.446;6.792;2023-06-01T03:45:28;12.90;50.20
46492;DHT22;32206;51.446;6.792;2023-06-01T03:47:54;12.90;49.80
46492;DHT22;32206;51.446;6.792;2023-06-01T03:50:19;12.90;48.10
46492;DHT22;32206;51.446;6.792;2023-06-01T03:52:45;12.90;48.60
46492;DHT22;32206;51.446;6.792;2023-06-01T03:55:11;12.90;47.70
46492;DHT22;32206;51.446;6.792;2023-06-01T03:57:38;12.90;41.70
46492;DHT22;32206;51.446;6.792;2023-06-01T04:00:05;12.80;40.10
46492;DHT22;32206;51.446;6.792;2023-06-01T04:02:46;12.80;36.20
46492;DHT22;32206;51.446;6.792;2023-06-01T04:05:14;12.70;39.30
46492;DHT22;32206;51.446;6.792;2023-06-01T04:07:49;12.80;38.10
46492;DHT22;32206;51.446;6.792;2023-06-01T04:10:15;12.70;32.00
46492;DHT22;32206;51.446;6.792;2023-06-01T04:12:43;12.60;34.60
46492;DHT22;32206;51.446;6.792;2023-06-01T04:15:09;12.60;36.50
46492;DHT22;32206;51.446;6.792;2023-06-01T04:17:37;12.60;36.90
46492;DHT22;32206;51.446;6.792;2023-06-01T04:20:04;12.70;33.50
46492;DHT22;32206;51.446;6.792;2023-06-01T04:22:35;12.60;30.00
46492;DHT22;32206;51.446;6.792;2023-06-01T04:25:01;12.40;31.60
46492;DHT22;32206;51.446;6.792;2023-06-01T04:27:26;12.50;26.40
46492;DHT22;32206;51.446;6.792;2023-06-01T04:29:52;12.50;28.60
46492;DHT22;32206;51.446;6.792;2023-06-01T04:32:19;12.50;25.40
46492;DHT22;32206;51.446;6.792;2023-06-01T04:34:50;12.50;26.50
46492;DHT22;32206;51.446;6.792;2023-06-01T04:37:16;12.50;22.00
46492;DHT22;32206;51.446;6.792;2023-06-01T04:39:45;12.50;23.30
46492;DHT22;32206;51.446;6.792;2023-06-01T04:42:14;12.50;18.30
46492;DHT22;32206;51.446;6.792;2023-06-01T04:44:42;12.40;19.20
46492;DHT22;32206;51.446;6.792;2023-06-01T04:47:08;12.40;18.30
46492;DHT22;32206;51.446;6.792;2023-06-01T04:49:34;12.40;19.00
46492;DHT22;32206;51.446;6.792;2023-06-01T04:52:01;12.50;22.30
46492;DHT22;32206;51.446;6.792;2023-06-01T04:54:27;12.60;16.80
46492;DHT22;32206;51.446;6.792;2023-06-01T04:56:53;12.50;13.40
46492;DHT22;32206;51.446;6.792;2023-06-01T04:59:20;12.60;13.50
46492;DHT22;32206;51.446;6.792;2023-06-01T05:01:46;12.70;12.20
46492;DHT22;32206;51.446;6.792;2023-06-01T05:04:12;12.80;3.60
46492;DHT22;32206;51.446;6.792;2023-06-01T05:06:37;12.90;1.00
46492;DHT22;32206;51.446;6.792;2023-06-01T05:09:03;12.90;1.00
46492;DHT22;32206;51.446;6.792;2023-06-01T05:15:26;12.90;1.00
46492;DHT22;32206;51.446;6.792;2023-06-01T05:17:53;12.80;1.00
46492;DHT22;32206;51.446;6.792;2023-06-01T05:20:19;12.90;1.00
46492;DHT22;32206;51.446;6.792;2023-06-01T05:22:45;12.70;1.00
46492;DHT22;32206;51.446;6.792;2023-06-01T05:25:11;12.70;1.00
46492;DHT22;32206;51.446;6.792;2023-06-01T05:27:37;12.70;1.00
46492;DHT22;32206;51.446;6.792;2023-06-01T05:30:04;12.70;1.00
46492;DHT22;32206;51.446;6.792;2023-06-01T05:32:30;12.70;1.00
46492;DHT22;32206;51.446;6.792;2023-06-01T05:34:56;12.70;1.00
46492;DHT22;32206;51.446;6.792;2023-06-01T05:37:22;12.80;1.00
46492;DHT22;32206;51.446;6.792;2023-06-01T05:39:47;12.80;1.00
46492;DHT22;32206;51.446;6.792;2023-06-01T05:42:13;12.80;1.00
46492;DHT22;32206;51.446;6.792;2023-06-01T05:48:01;12.90;1.00
46492;DHT22;32206;51.446;6.792;2023-06-01T05:50:27;12.80;1.00
46492;DHT22;32206;51.446;6.792;2023-06-01T05:52:52;13.10;1.00
46492;DHT22;32206;51.446;6.792;2023-06-01T05:55:19;12.90;1.00
46492;DHT22;32206;51.446;6.792;2023-06-01T05:57:44;12.90;1.00
46492;DHT22;32206;51.446;6.792;2023-06-01T06:00:13;13.20;1.00
46492;DHT22;32206;51.446;6.792;2023-06-01T06:02:39;13.00;1.00
46492;DHT22;32206;51.446;6.792;2023-06-01T06:05:07;12.90;1.00
46492;DHT22;32206;51.446;6.792;2023-06-01T06:07:34;13.00;1.00
46492;DHT22;32206;51.446;6.792;2023-06-01T06:09:59;13.00;1.00
46492;DHT22;32206;51.446;6.792;2023-06-01T06:12:25;13.00;1.00
46492;DHT22;32206;51.446;6.792;2023-06-01T06:14:51;13.10;1.00
46492;DHT22;32206;51.446;6.792;2023-06-01T06:17:17;13.20;1.00
46492;DHT22;32206;51.446;6.792;2023-06-01T06:19:43;13.20;1.00
46492;DHT22;32206;51.446;6.792;2023-06-01T06:22:10;13.20;1.00
46492;DHT22;32206;51.446;6.792;2023-06-01T06:24:36;13.20;1.00
46492;DHT22;32206;51.446;6.792;2023-06-01T06:27:01;13.30;1.00
46492;DHT22;32206;51.446;6.792;2023-06-01T06:29:27;13.50;1.00
46492;DHT22;32206;51.446;6.792;2023-06-01T06:31:53;13.70;1.00
46492;DHT22;32206;51.446;6.792;2023-06-01T06:34:19;13.90;1.00
46492;DHT22;32206;51.446;6.792;2023-06-01T06:36:44;14.00;1.00
46492;DHT22;32206;51.446;6.792;2023-06-01T06:42:32;14.20;1.00
46492;DHT22;32206;51.446;6.792;2023-06-01T06:44:58;14.40;1.00
46492;DHT22;32206;51.446;6.792;2023-06-01T06:47:23;14.80;1.00
46492;DHT22;32206;51.446;6.792;2023-06-01T06:49:50;14.70;99.90
46492;DHT22;32206;51.446;6.792;2023-06-01T06:52:16;14.70;99.90
46492;DHT22;32206;51.446;6.792;2023-06-01T06:54:42;14.60;99.90
46492;DHT22;32206;51.446;6.792;2023-06-01T06:57:09;14.50;99.90
46492;DHT22;32206;51.446;6.792;2023-06-01T06:59:35;14.30;99.90
46492;DHT22;32206;51.446;6.792;2023-06-01T07:02:02;14.20;99.90
46492;DHT22;32206;51.446;6.792;2023-06-01T07:04:29;14.00;99.90
46492;DHT22;32206;51.446;6.792;2023-06-01T07:06:55;13.90;1.00
46492;DHT22;32206;51.446;6.792;2023-06-01T07:09:21;13.90;1.00
46492;DHT22;32206;51.446;6.792;2023-06-01T07:11:46;14.10;1.00
46492;DHT22;32206;51.446;6.792;2023-06-01T07:14:13;14.10;1.00
46492;DHT22;32206;51.446;6.792;2023-06-01T07:16:39;14.30;99.90
46492;DHT22;32206;51.446;6.792;2023-06-01T07:19:05;14.40;99.90
46492;DHT22;32206;51.446;6.792;2023-06-01T07:28:11;15.00;99.90
46492;DHT22;32206;51.446;6.792;2023-06-01T07:30:37;14.90;99.90
46492;DHT22;32206;51.446;6.792;2023-06-01T07:33:03;14.80;88.70
46492;DHT22;32206;51.446;6.792;2023-06-01T07:35:29;14.90;99.90
46492;DHT22;32206;51.446;6.792;2023-06-01T07:37:54;15.00;99.90
46492;DHT22;32206;51.446;6.792;2023-06-01T07:40:21;15.10;96.60
46492;DHT22;32206;51.446;6.792;2023-06-01T07:42:47;15.20;99.90
46492;DHT22;32206;51.446;6.792;2023-06-01T07:45:12;15.40;99.90
46492;DHT22;32206;51.446;6.792;2023-06-01T07:47:38;15.50;99.90
46492;DHT22;32206;51.446;6.792;2023-06-01T07:50:05;15.60;99.90
46492;DHT22;32206;51.446;6.792;2023-06-01T07:52:30;15.60;99.90
46492;DHT22;32206;51.446;6.792;2023-06-01T07:54:56;15.50;1.00
46492;DHT22;32206;51.446;6.792;2023-06-01T07:57:22;15.30;1.00
46492;DHT22;32206;51.446;6.792;2023-06-01T07:59:49;15.20;1.00
46492;DHT22;32206;51.446;6.792;2023-06-01T08:05:37;15.00;1.00
46492;DHT22;32206;51.446;6.792;2023-06-01T08:08:03;15.10;23.30
46492;DHT22;32206;51.446;6.792;2023-06-01T08:10:29;15.20;57.10
46492;DHT22;32206;51.446;6.792;2023-06-01T08:12:55;15.40;1.00
46492;DHT22;32206;51.446;6.792;2023-06-01T08:15:25;15.50;99.90
46492;DHT22;32206;51.446;6.792;2023-06-01T08:17:55;15.60;95.30
46492;DHT22;32206;51.446;6.792;2023-06-01T08:20:21;15.60;1.00
46492;DHT22;32206;51.446;6.792;2023-06-01T08:22:48;15.60;99.90
46492;DHT22;32206;51.446;6.792;2023-06-01T08:25:14;15.80;99.90
46492;DHT22;32206;51.446;6.792;2023-06-01T08:27:41;15.90;1.00
46492;DHT22;32206;51.446;6.792;2023-06-01T08:30:08;16.00;99.90
46492;DHT22;32206;51.446;6.792;2023-06-01T08:39:23;16.20;1.00
46492;DHT22;32206;51.446;6.792;2023-06-01T08:42:12;16.20;99.90
46492;DHT22;32206;51.446;6.792;2023-06-01T08:44:40;16.30;99.90
46492;DHT22;32206;51.446;6.792;2023-06-01T08:47:07;16.40;1.00
46492;DHT22;32206;51.446;6.792;2023-06-01T08:49:34;16.50;1.00
46492;DHT22;32206;51.446;6.792;2023-06-01T08:52:07;16.60;99.90
46492;DHT22;32206;51.446;6.792;2023-06-01T08:54:34;16.70;99.90
46492;DHT22;32206;51.446;6.792;2023-06-01T08:57:03;16.70;99.90
46492;DHT22;32206;51.446;6.792;2023-06-01T08:59:32;16.80;97.80
46492;DHT22;32206;51.446;6.792;2023-06-01T09:01:59;16.80;99.90
46492;DHT22;32206;51.446;6.792;2023-06-01T09:04:26;16.90;99.90
46492;DHT22;32206;51.446;6.792;2023-06-01T09:06:52;17.00;99.90
46492;DHT22;32206;51.446;6.792;2023-06-01T09:09:18;17.00;99.90
46492;DHT22;32206;51.446;6.792;2023-06-01T09:11:44;17.10;99.90
46492;DHT22;32206;51.446;6.792;2023-06-01T09:14:20;17.10;1.00
46492;DHT22;32206;51.446;6.792;2023-06-01T09:16:49;17.20;99.90
46492;DHT22;32206;51.446;6.792;2023-06-01T09:19:15;17.20;99.90
46492;DHT22;32206;51.446;6.792;2023-06-01T09:22:04;17.30;99.90
46492;DHT22;32206;51.446;6.792;2023-06-01T09:24:30;17.40;99.90
46492;DHT22;32206;51.446;6.792;2023-06-01T09:27:00;17.50;99.90
46492;DHT22;32206;51.446;6.792;2023-06-01T09:29:26;17.60;1.00
46492;DHT22;32206;51.446;6.792;2023-06-01T09:31:52;17.70;1.00
46492;DHT22;32206;51.446;6.792;2023-06-01T09:34:19;17.80;99.90
46492;DHT22;32206;51.446;6.792;2023-06-01T09:36:46;17.90;29.20
46492;DHT22;32206;51.446;6.792;2023-06-01T09:39:14;17.90;1.00
46492;DHT22;32206;51.446;6.792;2023-06-01T09:48:44;18.40;99.90
46492;DHT22;32206;51.446;6.792;2023-06-01T09:51:24;18.50;99.90
46492;DHT22;32206;51.446;6.792;2023-06-01T09:53:54;18.60;99.90
46492;DHT22;32206;51.446;6.792;2023-06-01T09:56:20;18.60;99.90
46492;DHT22;32206;51.446;6.792;2023-06-01T09:58:46;18.80;99.90
46492;DHT22;32206;51.446;6.792;2023-06-01T10:01:13;19.00;99.90
46492;DHT22;32206;51.446;6.792;2023-06-01T10:03:42;19.10;99.90
46492;DHT22;32206;51.446;6.792;2023-06-01T10:06:33;19.20;99.90
46492;DHT22;32206;51.446;6.792;2023-06-01T10:09:01;19.40;77.80
46492;DHT22;32206;51.446;6.792;2023-06-01T10:11:28;19.40;16.70
46492;DHT22;32206;51.446;6.792;2023-06-01T10:13:55;19.40;55.50
46492;DHT22;32206;51.446;6.792;2023-06-01T10:19:44;19.80;1.00
46492;DHT22;32206;51.446;6.792;2023-06-01T10:22:11;19.60;1.00
46492;DHT22;32206;51.446;6.792;2023-06-01T10:24:37;19.60;1.00
46492;DHT22;32206;51.446;6.792;2023-06-01T10:29:42;19.90;1.00
46492;DHT22;32206;51.446;6.792;2023-06-01T10:35:06;20.10;1.00
46492;DHT22;32206;51.446;6.792;2023-06-01T10:37:32;20.10;1.00
46492;DHT22;32206;51.446;6.792;2023-06-01T10:42:45;20.20;1.00
46492;DHT22;32206;51.446;6.792;2023-06-01T10:45:39;20.40;1.00
46492;DHT22;32206;51.446;6.792;2023-06-01T10:48:06;20.50;1.00
46492;DHT22;32206;51.446;6.792;2023-06-01T10:50:34;20.50;1.00
46492;DHT22;32206;51.446;6.792;2023-06-01T10:53:23;20.70;1.00
46492;DHT22;32206;51.446;6.792;2023-06-01T10:56:21;20.90;1.00
46492;DHT22;32206;51.446;6.792;2023-06-01T11:01:37;21.10;99.90
46492;DHT22;32206;51.446;6.792;2023-06-01T11:04:04;21.10;99.90
46492;DHT22;32206;51.446;6.792;2023-06-01T11:06:35;21.30;99.90
46492;DHT22;32206;51.446;6.792;2023-06-01T11:09:04;21.40;99.90
46492;DHT22;32206;51.446;6.792;2023-06-01T11:14:22;21.60;99.90
46492;DHT22;32206;51.446;6.792;2023-06-01T11:16:49;21.60;99.90
46492;DHT22;32206;51.446;6.792;2023-06-01T11:19:20;21.70;99.90
46492;DHT22;32206;51.446;6.792;2023-06-01T11:21:58;21.60;99.90
46492;DHT22;32206;51.446;6.792;2023-06-01T11:24:31;21.60;99.90
46492;DHT22;32206;51.446;6.792;2023-06-01T11:26:59;21.60;99.90
46492;DHT22;32206;51.446;6.792;2023-06-01T11:29:26;21.70;99.90
46492;DHT22;32206;51.446;6.792;2023-06-01T11:31:59;21.80;99.90
46492;DHT22;32206;51.446;6.792;2023-06-01T11:34:36;21.90;99.90
46492;DHT22;32206;51.446;6.792;2023-06-01T11:37:05;21.90;99.90
46492;DHT22;32206;51.446;6.792;2023-06-01T11:39:31;22.00;99.90
46492;DHT22;32206;51.446;6.792;2023-06-01T11:44:45;22.20;99.90
46492;DHT22;32206;51.446;6.792;2023-06-01T11:47:12;22.50;99.90
46492;DHT22;32206;51.446;6.792;2023-06-01T11:49:54;22.50;99.90
46492;DHT22;32206;51.446;6.792;2023-06-01T11:52:20;22.80;99.90
46492;DHT22;32206;51.446;6.792;2023-06-01T11:54:47;22.90;99.90
46492;DHT22;32206;51.446;6.792;2023-06-01T11:57:13;22.80;99.90
46492;DHT22;32206;51.446;6.792;2023-06-01T12:08:45;23.00;99.90
46492;DHT22;32206;51.446;6.792;2023-06-01T12:11:10;22.90;99.90
46492;DHT22;32206;51.446;6.792;2023-06-01T12:13:37;22.90;99.90
46492;DHT22;32206;51.446;6.792;2023-06-01T12:16:03;23.10;99.90
46492;DHT22;32206;51.446;6.792;2023-06-01T12:18:29;23.10;99.90
46492;DHT22;32206;51.446;6.792;2023-06-01T12:24:25;23.00;99.90
46492;DHT22;32206;51.446;6.792;2023-06-01T12:26:52;23.00;99.90
46492;DHT22;32206;51.446;6.792;2023-06-01T12:29:39;23.10;99.90
46492;DHT22;32206;51.446;6.792;2023-06-01T12:32:07;23.20;99.90
46492;DHT22;32206;51.446;6.792;2023-06-01T12:34:34;23.30;99.90
46492;DHT22;32206;51.446;6.792;2023-06-01T12:37:14;23.20;99.90
46492;DHT22;32206;51.446;6.792;2023-06-01T12:39:39;23.20;99.90
46492;DHT22;32206;51.446;6.792;2023-06-01T12:42:07;23.30;99.90
46492;DHT22;32206;51.446;6.792;2023-06-01T12:44:33;23.20;99.90
46492;DHT22;32206;51.446;6.792;2023-06-01T12:47:00;23.30;99.90
46492;DHT22;32206;51.446;6.792;2023-06-01T12:49:29;23.30;99.90
46492;DHT22;32206;51.446;6.792;2023-06-01T12:51:55;23.20;99.90
46492;DHT22;32206;51.446;6.792;2023-06-01T12:54:21;23.30;99.90
46492;DHT22;32206;51.446;6.792;2023-06-01T12:57:11;23.10;99.90
46492;DHT22;32206;51.446;6.792;2023-06-01T12:59:37;23.20;99.90
46492;DHT22;32206;51.446;6.792;2023-06-01T13:02:03;23.30;99.90
46492;DHT22;32206;51.446;6.792;2023-06-01T13:04:29;23.30;99.90
46492;DHT22;32206;51.446;6.792;2023-06-01T13:06:55;23.20;99.90
46492;DHT22;32206;51.446;6.792;2023-06-01T13:09:21;23.10;99.90
46492;DHT22;32206;51.446;6.792;2023-06-01T13:11:47;23.20;99.90
46492;DHT22;32206;51.446;6.792;2023-06-01T13:14:12;23.00;99.90
46492;DHT22;32206;51.446;6.792;2023-06-01T13:16:38;23.10;99.90
46492;DHT22;32206;51.446;6.792;2023-06-01T13:19:03;23.10;99.90
46492;DHT22;32206;51.446;6.792;2023-06-01T13:21:29;22.90;99.90
46492;DHT22;32206;51.446;6.792;2023-06-01T13:23:56;22.90;99.90
46492;DHT22;32206;51.446;6.792;2023-06-01T13:26:22;22.90;99.90
46492;DHT22;32206;51.446;6.792;2023-06-01T13:28:49;22.90;99.90
46492;DHT22;32206;51.446;6.792;2023-06-01T13:31:14;22.90;99.90
46492;DHT22;32206;51.446;6.792;2023-06-01T13:33:40;23.00;99.90
46492;DHT22;32206;51.446;6.792;2023-06-01T13:36:06;23.10;99.90
46492;DHT22;32206;51.446;6.792;2023-06-01T13:38:32;23.20;99.90
46492;DHT22;32206;51.446;6.792;2023-06-01T13:40:57;23.20;99.90
46492;DHT22;32206;51.446;6.792;2023-06-01T13:43:23;23.20;99.90
46492;DHT22;32206;51.446;6.792;2023-06-01T13:45:49;23.20;99.90
46492;DHT22;32206;51.446;6.792;2023-06-01T13:48:15;23.30;99.90
46492;DHT22;32206;51.446;6.792;2023-06-01T13:50:40;23.40;99.90
46492;DHT22;32206;51.446;6.792;2023-06-01T13:53:06;23.30;99.90
46492;DHT22;32206;51.446;6.792;2023-06-01T13:55:31;23.30;99.90
46492;DHT22;32206;51.446;6.792;2023-06-01T13:57:57;23.20;99.90
46492;DHT22;32206;51.446;6.792;2023-06-01T14:00:23;23.20;99.90
46492;DHT22;32206;51.446;6.792;2023-06-01T14:03:20;23.30;99.90
46492;DHT22;32206;51.446;6.792;2023-06-01T14:09:08;23.10;99.90
46492;DHT22;32206;51.446;6.792;2023-06-01T14:11:34;23.10;99.90
46492;DHT22;32206;51.446;6.792;2023-06-01T14:14:00;23.10;99.90
46492;DHT22;32206;51.446;6.792;2023-06-01T14:16:25;23.10;99.90
46492;DHT22;32206;51.446;6.792;2023-06-01T14:18:51;23.10;99.90
46492;DHT22;32206;51.446;6.792;2023-06-01T14:21:17;23.10;99.90
46492;DHT22;32206;51.446;6.792;2023-06-01T14:23:42;23.10;99.90
46492;DHT22;32206;51.446;6.792;2023-06-01T14:26:10;23.10;99.90
46492;DHT22;32206;51.446;6.792;2023-06-01T14:28:36;23.20;99.90
46492;DHT22;32206;51.446;6.792;2023-06-01T14:31:01;23.10;99.90
46492;DHT22;32206;51.446;6.792;2023-06-01T14:33:27;23.10;99.90
46492;DHT22;32206;51.446;6.792;2023-06-01T14:35:52;23.20;99.90
46492;DHT22;32206;51.446;6.792;2023-06-01T14:38:18;23.10;99.90
46492;DHT22;32206;51.446;6.792;2023-06-01T14:40:44;23.20;99.90
46492;DHT22;32206;51.446;6.792;2023-06-01T14:43:09;23.30;99.90
46492;DHT22;32206;51.446;6.792;2023-06-01T14:45:35;23.20;99.90
46492;DHT22;32206;51.446;6.792;2023-06-01T14:48:01;23.20;99.90
46492;DHT22;32206;51.446;6.792;2023-06-01T14:50:26;23.20;99.90
46492;DHT22;32206;51.446;6.792;2023-06-01T14:52:52;23.20;99.90
46492;DHT22;32206;51.446;6.792;2023-06-01T14:55:24;23.10;99.90
46492;DHT22;32206;51.446;6.792;2023-06-01T14:57:50;23.10;99.90
46492;DHT22;32206;51.446;6.792;2023-06-01T15:06:57;23.10;99.90
46492;DHT22;32206;51.446;6.792;2023-06-01T15:09:23;23.10;99.90
46492;DHT22;32206;51.446;6.792;2023-06-01T15:11:49;23.10;99.90
46492;DHT22;32206;51.446;6.792;2023-06-01T15:14:14;23.20;99.90
46492;DHT22;32206;51.446;6.792;2023-06-01T15:16:40;23.20;99.90
46492;DHT22;32206;51.446;6.792;2023-06-01T15:19:06;23.10;99.90
46492;DHT22;32206;51.446;6.792;2023-06-01T15:21:32;23.10;99.90
46492;DHT22;32206;51.446;6.792;2023-06-01T15:23:57;23.10;99.90
46492;DHT22;32206;51.446;6.792;2023-06-01T15:26:23;23.10;99.90
46492;DHT22;32206;51.446;6.792;2023-06-01T15:28:48;23.10;99.90
46492;DHT22;32206;51.446;6.792;2023-06-01T15:31:14;23.00;99.90
46492;DHT22;32206;51.446;6.792;2023-06-01T15:33:40;22.90;99.90
46492;DHT22;32206;51.446;6.792;2023-06-01T15:39:27;23.00;99.90
46492;DHT22;32206;51.446;6.792;2023-06-01T15:41:53;23.00;99.90
46492;DHT22;32206;51.446;6.792;2023-06-01T15:44:19;23.00;99.90
46492;DHT22;32206;51.446;6.792;2023-06-01T15:47:15;23.10;99.90
46492;DHT22;32206;51.446;6.792;2023-06-01T15:49:41;22.90;99.90
46492;DHT22;32206;51.446;6.792;2023-06-01T15:52:08;22.80;99.90
46492;DHT22;32206;51.446;6.792;2023-06-01T15:54:35;22.80;99.90
46492;DHT22;32206;51.446;6.792;2023-06-01T15:57:01;22.70;99.90
46492;DHT22;32206;51.446;6.792;2023-06-01T15:59:29;22.80;99.90
46492;DHT22;32206;51.446;6.792;2023-06-01T16:01:55;22.80;99.90
46492;DHT22;32206;51.446;6.792;2023-06-01T16:04:21;22.70;99.90
46492;DHT22;32206;51.446;6.792;2023-06-01T16:06:47;22.80;99.90
46492;DHT22;32206;51.446;6.792;2023-06-01T16:09:13;22.90;99.90
46492;DHT22;32206;51.446;6.792;2023-06-01T16:11:39;23.20;99.90
46492;DHT22;32206;51.446;6.792;2023-06-01T16:14:04;23.00;99.90
46492;DHT22;32206;51.446;6.792;2023-06-01T16:16:32;23.00;99.90
46492;DHT22;32206;51.446;6.792;2023-06-01T16:18:58;23.10;99.90
46492;DHT22;32206;51.446;6.792;2023-06-01T16:28:08;23.10;99.90
46492;DHT22;32206;51.446;6.792;2023-06-01T16:30:33;23.00;99.90
46492;DHT22;32206;51.446;6.792;2023-06-01T16:32:59;23.00;99.90
46492;DHT22;32206;51.446;6.792;2023-06-01T16:35:25;23.00;99.90
46492;DHT22;32206;51.446;6.792;2023-06-01T16:37:52;23.00;99.90
46492;DHT22;32206;51.446;6.792;2023-06-01T16:40:17;23.00;99.90
46492;DHT22;32206;51.446;6.792;2023-06-01T16:42:44;23.00;99.90
46492;DHT22;32206;51.446;6.792;2023-06-01T16:45:10;22.90;99.90
46492;DHT22;32206;51.446;6.792;2023-06-01T16:47:35;22.80;99.90
46492;DHT22;32206;51.446;6.792;2023-06-01T16:50:01;22.80;99.90
46492;DHT22;32206;51.446;6.792;2023-06-01T16:52:27;22.60;99.90
46492;DHT22;32206;51.446;6.792;2023-06-01T16:54:55;22.60;99.90
46492;DHT22;32206;51.446;6.792;2023-06-01T16:57:22;22.40;99.90
46492;DHT22;32206;51.446;6.792;2023-06-01T16:59:54;22.20;99.90
46492;DHT22;32206;51.446;6.792;2023-06-01T17:02:20;21.90;99.90
46492;DHT22;32206;51.446;6.792;2023-06-01T17:04:46;22.00;99.90
46492;DHT22;32206;51.446;6.792;2023-06-01T17:07:11;21.90;99.90
46492;DHT22;32206;51.446;6.792;2023-06-01T17:09:37;21.80;1.00
46492;DHT22;32206;51.446;6.792;2023-06-01T17:12:03;21.70;1.00
46492;DHT22;32206;51.446;6.792;2023-06-01T17:14:29;21.50;1.00
46492;DHT22;32206;51.446;6.792;2023-06-01T17:16:56;21.40;1.00
46492;DHT22;32206;51.446;6.792;2023-06-01T17:19:22;21.30;1.00
46492;DHT22;32206;51.446;6.792;2023-06-01T17:21:48;21.30;1.00
46492;DHT22;32206;51.446;6.792;2023-06-01T17:24:13;21.30;1.00
46492;DHT22;32206;51.446;6.792;2023-06-01T17:26:39;21.20;1.00